Terminal Aerodrome Forecast
Issued by NWS

Home | Current Version | Previous Version | Text Only | Print | Product List | Glossary On
Versions: 1 2 3 4 5 6 7 8 9 10 11 12 13 14 15 16
000
FTUS45 KREV 261723
TAFMMH
TAF
KMMH 261723Z 2618/2718 30018G30KT P6SM SCT060 BKN080
     FM261900 29025G40KT P6SM SCT050 BKN080
     FM270200 30012G24KT P6SM SCT080 BKN140=

USA.gov is the U.S. government's official web portal to all federal, state and local government web resources and services.